General Aviation Weather

Text Reports

Enter one or more of the following location identifiers separated by a space:

Zip Code, Four-Character ICAO or Three-Character IATA airport codes.

METAR - Aviation Routine Weather Report
KTBR - Statesboro, Georgia
Updated at 3:55 AM GMT on April 21, 2014 (11:55 PM EDT):
METAR KTBR 210355Z AUTO 00000KT 10SM CLR 12/11 A3012 RMK AO2 T01200108
TAF - Terminal Area Forecast
KTBR - Statesboro, Georgia
Updated at 3:55 AM GMT on April 21, 2014 (11:55 PM EDT):
No TAF is currently available for this location.
Decoded:
No decoded TAF is available.
PIREP - Pilot Weather Report
KTBR - Statesboro, Georgia
Updated at 3:55 AM GMT on April 21, 2014 (11:55 PM EDT):
No PIREP is currently available for this location.
AIRMET - Airmens Meteorological Information
KTBR - Statesboro, Georgia
Updated at 3:55 AM GMT on April 21, 2014 (11:55 PM EDT):
No AIRMET is currently available for this location.
SIGMET - Significant Meteorological Information
KTBR - Statesboro, Georgia
Updated at 3:55 AM GMT on April 21, 2014 (11:55 PM EDT):
No SIGMET is currently available for this location.
NOTAM - Notice to Airmen
KTBR - Statesboro, Georgia
Updated at 3:55 AM GMT on April 21, 2014 (11:55 PM EDT):
No NOTAM is currently available for this location.
Forecast Area
KTBR - Statesboro, Georgia
Updated at 3:55 AM GMT on April 21, 2014 (11:55 PM EDT):
No NOTAM is currently available for this location.
Aviation Weather Maps